createdAt,value
2018-11-28T00:01:35.375Z,4.97
2018-11-28T00:06:37.433Z,4.90
2018-11-28T00:11:39.543Z,4.53
2018-11-28T00:16:41.591Z,4.50
2018-11-28T00:21:43.662Z,4.63
2018-11-28T00:26:45.735Z,4.00
2018-11-28T00:31:47.780Z,3.67
2018-11-28T00:36:49.858Z,3.23
2018-11-28T00:41:51.947Z,3.90
2018-11-28T00:46:54.165Z,3.63
2018-11-28T00:51:56.198Z,3.00
2018-11-28T00:56:58.231Z,3.40
2018-11-28T01:02:00.328Z,2.67
2018-11-28T01:07:03.110Z,3.30
2018-11-28T01:12:05.235Z,3.67
2018-11-28T01:17:07.279Z,2.43
2018-11-28T01:22:09.360Z,2.80
2018-11-28T01:27:11.483Z,3.20
2018-11-28T01:32:13.540Z,2.90
2018-11-28T01:37:15.601Z,3.40
2018-11-28T01:42:17.655Z,3.37
2018-11-28T01:47:19.687Z,3.27
2018-11-28T01:52:21.752Z,3.57
2018-11-28T01:57:23.818Z,2.73
2018-11-28T02:02:25.887Z,2.83
2018-11-28T02:07:27.935Z,2.80
2018-11-28T02:12:30.015Z,2.53
2018-11-28T02:17:32.072Z,2.50
2018-11-28T02:22:34.117Z,2.00
2018-11-28T02:27:36.209Z,2.20
2018-11-28T02:32:38.271Z,2.40
2018-11-28T02:37:40.434Z,2.07
2018-11-28T02:42:42.682Z,1.97
2018-11-28T02:47:44.899Z,2.00
2018-11-28T02:52:47.045Z,1.80
2018-11-28T02:57:49.506Z,1.87
2018-11-28T03:02:51.910Z,1.90
2018-11-28T03:07:54.015Z,2.33
2018-11-28T03:12:56.144Z,2.90
2018-11-28T03:17:58.260Z,3.30
2018-11-28T03:23:00.346Z,3.00
2018-11-28T03:28:02.484Z,3.30
2018-11-28T03:33:05.046Z,4.07
2018-11-28T03:38:07.214Z,3.97
2018-11-28T03:43:09.336Z,4.00
2018-11-28T03:48:11.475Z,4.80
2018-11-28T03:53:13.609Z,4.70
2018-11-28T03:58:15.735Z,4.70
2018-11-28T04:03:17.866Z,5.70
2018-11-28T04:08:19.992Z,5.20
2018-11-28T04:13:22.132Z,7.00
2018-11-28T04:18:24.239Z,6.70
2018-11-28T04:23:26.358Z,7.37
2018-11-28T04:28:28.498Z,8.87
2018-11-28T04:33:30.613Z,8.00
2018-11-28T04:38:32.729Z,9.50
2018-11-28T04:43:34.844Z,9.00
2018-11-28T04:48:36.973Z,8.60
2018-11-28T04:53:39.089Z,9.33
2018-11-28T04:58:41.190Z,9.30
2018-11-28T05:03:43.286Z,9.30
2018-11-28T05:08:45.407Z,7.73
2018-11-28T05:13:47.563Z,7.77
2018-11-28T05:18:49.662Z,8.43
2018-11-28T05:23:51.779Z,7.73
2018-11-28T05:28:53.914Z,7.57
2018-11-28T05:33:56.082Z,7.57
2018-11-28T05:38:58.184Z,8.17
2018-11-28T05:44:00.273Z,7.60
2018-11-28T05:49:02.394Z,7.30
2018-11-28T05:54:04.556Z,6.93
2018-11-28T05:59:06.678Z,7.63
2018-11-28T06:04:08.817Z,6.90
2018-11-28T06:09:10.932Z,7.20
2018-11-28T06:14:13.066Z,7.20
2018-11-28T06:19:15.157Z,6.27
2018-11-28T06:24:17.273Z,6.10
2018-11-28T06:29:19.481Z,6.07
2018-11-28T06:34:21.610Z,6.40
2018-11-28T06:39:23.697Z,7.93
2018-11-28T06:44:25.793Z,7.20
2018-11-28T06:49:27.897Z,6.93
2018-11-28T06:54:30.025Z,7.33
2018-11-28T06:59:32.161Z,8.07
2018-11-28T07:04:34.288Z,9.07
2018-11-28T07:09:36.403Z,9.00
2018-11-28T07:14:38.579Z,7.53
2018-11-28T07:19:40.732Z,8.30
2018-11-28T07:24:42.838Z,8.50
2018-11-28T07:29:44.989Z,8.57
2018-11-28T07:34:47.113Z,8.90
2018-11-28T07:39:49.211Z,9.53
2018-11-28T07:44:51.354Z,8.67
2018-11-28T07:49:53.448Z,9.93
2018-11-28T07:54:55.561Z,10.03
2018-11-28T07:59:57.669Z,10.97
2018-11-28T08:04:59.805Z,11.87
2018-11-28T08:10:01.954Z,12.10
2018-11-28T08:15:05.106Z,11.50
2018-11-28T08:20:07.244Z,11.20
2018-11-28T08:25:12.686Z,12.23
2018-11-28T08:30:17.306Z,10.83
2018-11-28T08:35:19.512Z,11.93
2018-11-28T08:40:22.741Z,11.70
2018-11-28T08:45:24.885Z,12.00
2018-11-28T08:50:30.404Z,10.30
2018-11-28T08:55:32.536Z,11.33
2018-11-28T09:00:35.137Z,11.60
2018-11-28T09:05:37.279Z,12.77
2018-11-28T09:10:39.433Z,11.30
2018-11-28T09:15:41.568Z,10.97
2018-11-28T09:20:43.730Z,11.47
2018-11-28T09:25:45.891Z,9.67
2018-11-28T09:30:48.086Z,10.40
2018-11-28T09:35:50.217Z,10.30
2018-11-28T09:40:52.344Z,8.93
2018-11-28T09:45:54.481Z,10.20
2018-11-28T09:50:56.661Z,9.20
2018-11-28T09:55:58.769Z,9.07
2018-11-28T10:01:00.931Z,8.60
2018-11-28T10:06:03.156Z,9.27
2018-11-28T10:11:05.322Z,9.93
2018-11-28T10:16:07.463Z,8.77
2018-11-28T10:21:09.605Z,9.23
2018-11-28T10:26:11.736Z,9.47
2018-11-28T10:31:13.935Z,8.20
2018-11-28T10:36:16.136Z,8.73
2018-11-28T10:41:18.308Z,10.07
2018-11-28T10:46:20.446Z,8.93
2018-11-28T10:51:22.616Z,9.37
2018-11-28T10:56:24.742Z,9.70
2018-11-28T11:01:26.948Z,10.10
2018-11-28T11:06:34.695Z,9.60
2018-11-28T11:11:42.708Z,9.63
2018-11-28T11:16:44.848Z,10.03
2018-11-28T11:21:47.042Z,10.90
2018-11-28T11:26:49.155Z,10.23
2018-11-28T11:31:51.317Z,10.57
2018-11-28T11:36:53.431Z,9.13
2018-11-28T11:41:55.553Z,9.73
2018-11-28T11:46:57.690Z,12.00
2018-11-28T11:51:59.822Z,10.77
2018-11-28T11:57:01.957Z,10.83
2018-11-28T12:02:04.464Z,11.40
2018-11-28T12:07:06.604Z,13.37
2018-11-28T12:12:08.738Z,14.63
2018-11-28T12:17:10.898Z,15.50
2018-11-28T12:22:13.054Z,15.37
2018-11-28T12:27:15.209Z,16.07
2018-11-28T12:32:17.582Z,19.23
2018-11-28T12:37:19.691Z,18.00
2018-11-28T12:42:21.824Z,18.67
2018-11-28T12:47:23.971Z,19.50
2018-11-28T12:52:26.120Z,19.90
2018-11-28T12:57:28.246Z,19.40
2018-11-28T13:02:30.377Z,21.23
2018-11-28T13:07:32.551Z,21.37
2018-11-28T13:12:34.669Z,20.73
2018-11-28T13:17:36.840Z,21.50
2018-11-28T13:22:39.020Z,21.40
2018-11-28T13:27:41.529Z,22.23
2018-11-28T13:32:44.216Z,20.97
2018-11-28T13:37:47.280Z,22.87
2018-11-28T13:42:49.462Z,22.00
2018-11-28T13:47:52.738Z,24.80
2018-11-28T13:52:55.515Z,23.40
2018-11-28T13:57:57.674Z,23.93
2018-11-28T14:02:59.847Z,22.17
2018-11-28T14:08:01.988Z,22.10
2018-11-28T14:13:04.526Z,23.07
2018-11-28T14:18:14.052Z,22.80
2018-11-28T14:23:16.230Z,21.80
2018-11-28T14:28:18.462Z,22.77
2018-11-28T14:33:20.722Z,23.10
2018-11-28T14:38:22.923Z,20.73
2018-11-28T14:43:25.090Z,24.00
2018-11-28T14:48:27.256Z,22.93
2018-11-28T14:53:29.508Z,22.30
2018-11-28T14:58:31.733Z,21.80
2018-11-28T15:03:33.894Z,21.87
2018-11-28T15:08:36.313Z,20.57
2018-11-28T15:13:39.127Z,19.10
2018-11-28T15:18:41.366Z,20.97
2018-11-28T15:23:43.512Z,19.43
2018-11-28T15:28:45.700Z,19.77
2018-11-28T15:33:47.895Z,21.37
2018-11-28T15:38:50.030Z,21.07
2018-11-28T15:43:52.212Z,19.87
2018-11-28T15:48:54.336Z,20.37
2018-11-28T15:53:56.517Z,20.27
2018-11-28T15:58:58.696Z,21.03
2018-11-28T16:04:01.662Z,20.73
2018-11-28T16:09:06.874Z,22.77
2018-11-28T16:14:09.152Z,21.23
2018-11-28T16:19:11.294Z,21.23
2018-11-28T16:24:13.473Z,23.43
2018-11-28T16:29:15.669Z,22.07
2018-11-28T16:34:17.854Z,23.80
2018-11-28T16:39:19.999Z,22.77
2018-11-28T16:44:22.207Z,22.40
2018-11-28T16:49:24.364Z,21.23
2018-11-28T16:54:26.634Z,23.17
2018-11-28T16:59:30.881Z,22.43
2018-11-28T17:04:31.095Z,27.70
2018-11-28T17:09:33.279Z,23.10
2018-11-28T17:14:35.467Z,20.83
2018-11-28T17:19:37.655Z,22.10
2018-11-28T17:24:39.781Z,21.60
2018-11-28T17:29:41.937Z,20.80
2018-11-28T17:34:44.167Z,21.03
2018-11-28T17:39:46.377Z,20.80
2018-11-28T17:44:48.596Z,22.53
2018-11-28T17:49:50.781Z,21.70
2018-11-28T17:54:52.925Z,20.03
2018-11-28T17:59:55.094Z,20.67
2018-11-28T18:04:57.265Z,21.60
2018-11-28T18:09:59.433Z,18.30
2018-11-28T18:15:01.710Z,19.77
2018-11-28T18:20:04.015Z,20.03
2018-11-28T18:25:08.304Z,18.40
2018-11-28T18:30:11.466Z,19.80
2018-11-28T18:35:13.756Z,18.93
2018-11-28T18:40:15.983Z,19.80
2018-11-28T18:45:23.438Z,19.90
2018-11-28T18:50:25.623Z,19.33
2018-11-28T18:55:27.899Z,18.67
2018-11-28T19:00:30.123Z,20.03
2018-11-28T19:05:32.336Z,18.93
2018-11-28T19:10:34.790Z,18.93
2018-11-28T19:15:37.166Z,19.67
2018-11-28T19:20:40.662Z,19.70
2018-11-28T19:25:49.862Z,19.80
2018-11-28T19:30:53.917Z,20.00
2018-11-28T19:36:00.417Z,20.80
2018-11-28T19:41:08.283Z,21.47
2018-11-28T19:46:12.864Z,21.80
2018-11-28T19:51:16.159Z,21.53
2018-11-28T19:56:21.834Z,20.30
2018-11-28T20:01:27.579Z,23.40
2018-11-28T20:06:33.827Z,22.90
2018-11-28T20:11:39.896Z,20.80
2018-11-28T20:16:45.993Z,21.87
2018-11-28T20:21:53.037Z,21.40
2018-11-28T20:26:59.055Z,23.20
2018-11-28T20:32:05.220Z,20.57
2018-11-28T20:37:10.994Z,22.07
2018-11-28T20:42:17.026Z,22.90
2018-11-28T20:47:23.555Z,21.50
2018-11-28T20:52:29.977Z,24.30
2018-11-28T20:57:37.142Z,21.50
2018-11-28T21:02:43.994Z,21.50
2018-11-28T21:07:50.885Z,20.57
2018-11-28T21:12:56.775Z,21.00
2018-11-28T21:18:02.360Z,23.33
2018-11-28T21:23:10.136Z,21.30
2018-11-28T21:28:15.127Z,20.20
2018-11-28T21:33:19.377Z,23.63
2018-11-28T21:38:25.138Z,23.20
2018-11-28T21:43:27.813Z,21.57
2018-11-28T21:48:30.233Z,21.43
2018-11-28T21:53:32.443Z,23.90
2018-11-28T21:58:34.667Z,22.13
2018-11-28T22:03:36.818Z,22.53
2018-11-28T22:08:39.002Z,22.30
2018-11-28T22:13:41.201Z,24.20
2018-11-28T22:18:43.365Z,22.63
2018-11-28T22:23:45.507Z,23.50
2018-11-28T22:28:47.667Z,22.43
2018-11-28T22:33:49.818Z,21.57
2018-11-28T22:38:52.241Z,23.37
2018-11-28T22:43:54.380Z,21.63
2018-11-28T22:48:56.585Z,23.50
2018-11-28T22:53:58.782Z,22.97
2018-11-28T22:59:00.955Z,23.37
2018-11-28T23:04:03.133Z,21.37
2018-11-28T23:09:06.979Z,22.20
2018-11-28T23:14:09.134Z,20.73
2018-11-28T23:19:11.296Z,21.60
2018-11-28T23:24:13.446Z,21.13
2018-11-28T23:29:15.575Z,20.80
2018-11-28T23:34:17.732Z,21.87
2018-11-28T23:39:19.849Z,22.20
2018-11-28T23:44:22.015Z,22.03
2018-11-28T23:49:24.165Z,21.80
2018-11-28T23:54:26.293Z,21.23
2018-11-28T23:59:28.458Z,19.63
